createdAt,value
2019-05-06T00:00:56.666Z,77.4
2019-05-06T00:02:51.762Z,77.3
2019-05-06T00:04:51.476Z,77
2019-05-06T00:06:51.165Z,77
2019-05-06T00:08:51.107Z,77.5
2019-05-06T00:10:50.687Z,76.9
2019-05-06T00:12:50.540Z,77.6
2019-05-06T00:14:50.561Z,77.1
2019-05-06T00:16:50.722Z,77.4
2019-05-06T00:18:50.064Z,78.3
2019-05-06T00:20:49.892Z,78.2
2019-05-06T00:22:49.476Z,78.9
2019-05-06T00:24:49.348Z,78.5
2019-05-06T00:26:50.269Z,79.1
2019-05-06T00:28:49.087Z,79
2019-05-06T00:30:48.808Z,79
2019-05-06T00:32:48.816Z,79.7
2019-05-06T00:34:49.356Z,79.3
2019-05-06T00:36:48.208Z,79.4
2019-05-06T00:38:48.090Z,79.6
2019-05-06T00:40:47.895Z,79.3
2019-05-06T00:42:47.581Z,79.5
2019-05-06T00:44:47.537Z,79.4
2019-05-06T00:46:48.250Z,79.3
2019-05-06T00:48:47.032Z,79.1
2019-05-06T00:50:47.589Z,79
2019-05-06T00:52:46.656Z,79.1
2019-05-06T00:54:46.453Z,78.9
2019-05-06T00:56:48.283Z,79
2019-05-06T00:58:46.147Z,78.5
2019-05-06T01:00:46.130Z,78.2
2019-05-06T01:02:45.826Z,79.1
2019-05-06T01:04:45.585Z,79.2
2019-05-06T01:06:45.391Z,79.3
2019-05-06T01:08:45.187Z,78.9
2019-05-06T01:10:45.817Z,79.7
2019-05-06T01:12:44.801Z,79
2019-05-06T01:14:45.238Z,79.6
2019-05-06T01:16:46.738Z,78.9
2019-05-06T01:18:44.386Z,79.6
2019-05-06T01:20:44.687Z,79.1
2019-05-06T01:22:43.845Z,79.2
2019-05-06T01:24:44.779Z,79.1
2019-05-06T01:26:44.387Z,79.1
2019-05-06T01:28:45.512Z,79
2019-05-06T01:30:44.363Z,78.9
2019-05-06T01:32:43.689Z,79.5
2019-05-06T01:34:44.539Z,79
2019-05-06T01:36:43.779Z,78.8
2019-05-06T01:38:44.298Z,78.4
2019-05-06T01:40:43.981Z,78
2019-05-06T01:42:42.264Z,78.1
2019-05-06T01:44:44.215Z,77.6
2019-05-06T01:46:41.557Z,77.3
2019-05-06T01:48:41.228Z,77.1
2019-05-06T01:50:41.803Z,76.1
2019-05-06T01:52:40.882Z,75.8
2019-05-06T01:54:40.696Z,75.2
2019-05-06T01:56:40.735Z,74.9
2019-05-06T01:58:40.690Z,75.2
2019-05-06T02:00:40.143Z,74.6
2019-05-06T02:02:40.559Z,75
2019-05-06T02:04:39.826Z,74.6
2019-05-06T02:06:39.643Z,74.3
2019-05-06T02:08:40.131Z,74.3
2019-05-06T02:10:39.037Z,74.3
2019-05-06T02:12:39.408Z,74.4
2019-05-06T02:14:38.899Z,74.2
2019-05-06T02:16:38.624Z,74.7
2019-05-06T02:18:38.282Z,74.7
2019-05-06T02:20:39.253Z,75.1
2019-05-06T02:22:37.889Z,74.9
2019-05-06T02:24:37.900Z,75.1
2019-05-06T02:26:37.530Z,74.7
2019-05-06T02:28:37.362Z,75
2019-05-06T02:30:37.457Z,75
2019-05-06T02:32:37.108Z,74.6
2019-05-06T02:34:36.971Z,74.4
2019-05-06T02:36:37.579Z,74.4
2019-05-06T02:38:46.581Z,74.1
2019-05-06T02:40:36.351Z,73.7
2019-05-06T02:42:37.866Z,74
2019-05-06T02:44:36.163Z,73.3
2019-05-06T02:46:37.046Z,73.3
2019-05-06T02:48:35.607Z,72.8
2019-05-06T02:50:35.609Z,72.2
2019-05-06T02:52:35.219Z,71.8
2019-05-06T02:54:35.179Z,71
2019-05-06T02:56:35.761Z,70.8
2019-05-06T02:58:34.841Z,70.4
2019-05-06T03:00:34.753Z,70
2019-05-06T03:02:43.014Z,69.7
2019-05-06T03:04:34.347Z,69.1
2019-05-06T03:06:34.163Z,68.9
2019-05-06T03:08:34.118Z,68.8
2019-05-06T03:10:34.334Z,68.4
2019-05-06T03:12:33.723Z,67.6
2019-05-06T03:14:34.813Z,67.9
2019-05-06T03:16:33.623Z,67.6
2019-05-06T03:18:33.867Z,66.6
2019-05-06T03:20:38.569Z,66.5
2019-05-06T03:22:34.532Z,65.9
2019-05-06T03:24:33.205Z,65.9
2019-05-06T03:26:33.258Z,65.6
2019-05-06T03:28:33.297Z,65.2
2019-05-06T03:30:36.341Z,65.2
2019-05-06T03:32:37.795Z,65.2
2019-05-06T03:34:52.531Z,64.9
2019-05-06T03:36:39.427Z,65.8
2019-05-06T03:38:33.699Z,65.8
2019-05-06T03:40:36.073Z,66.2
2019-05-06T03:42:33.427Z,65.7
2019-05-06T03:44:33.033Z,66.3
2019-05-06T03:46:33.663Z,66.5
2019-05-06T03:48:33.326Z,66.6
2019-05-06T03:50:33.600Z,66.4
2019-05-06T03:52:33.864Z,66.4
2019-05-06T03:54:34.317Z,66
2019-05-06T03:58:34.662Z,66.1
2019-05-06T04:00:33.169Z,65.9
2019-05-06T04:02:33.439Z,65.1
2019-05-06T04:04:33.260Z,64.3
2019-05-06T04:06:33.006Z,64.1
2019-05-06T04:08:33.902Z,64.6
2019-05-06T04:10:29.213Z,64.3
2019-05-06T04:12:33.448Z,64.1
2019-05-06T04:14:33.755Z,63.9
2019-05-06T04:16:28.896Z,64.4
2019-05-06T04:18:28.663Z,64.6
2019-05-06T04:20:28.847Z,64.4
2019-05-06T04:22:29.272Z,64.3
2019-05-06T04:24:28.365Z,63.8
2019-05-06T04:26:29.022Z,63.7
2019-05-06T04:28:28.812Z,63.6
2019-05-06T04:30:28.055Z,63.7
2019-05-06T04:32:28.782Z,61.9
2019-05-06T04:34:27.918Z,62.1
2019-05-06T04:36:27.511Z,61.3
2019-05-06T04:38:27.522Z,61.4
2019-05-06T04:40:27.267Z,62
2019-05-06T04:42:27.208Z,61.6
2019-05-06T04:44:28.755Z,59.8
2019-05-06T04:46:26.835Z,60.1
2019-05-06T04:48:26.871Z,60.1
2019-05-06T04:50:27.895Z,59.8
2019-05-06T04:52:26.459Z,59.1
2019-05-06T04:54:26.999Z,58.1
2019-05-06T04:56:26.315Z,58.2
2019-05-06T04:58:26.455Z,57.7
2019-05-06T05:00:26.038Z,57.4
2019-05-06T05:02:26.559Z,56.4
2019-05-06T05:04:32.270Z,56.4
2019-05-06T05:06:26.981Z,56.5
2019-05-06T05:08:26.858Z,55.9
2019-05-06T05:10:25.549Z,55.5
2019-05-06T05:12:26.187Z,54.2
2019-05-06T05:14:26.311Z,53.8
2019-05-06T05:16:25.538Z,54.1
2019-05-06T05:18:24.928Z,54
2019-05-06T05:20:36.890Z,53.6
2019-05-06T05:22:25.474Z,53.9
2019-05-06T05:24:24.556Z,54
2019-05-06T05:26:24.650Z,53.4
2019-05-06T05:28:24.710Z,52.7
2019-05-06T05:30:24.428Z,53.1
2019-05-06T05:32:26.879Z,51.8
2019-05-06T05:34:37.222Z,52.5
2019-05-06T05:36:23.967Z,51.8
2019-05-06T05:38:23.867Z,52.1
2019-05-06T05:40:23.495Z,52.2
2019-05-06T05:42:23.585Z,52.4
2019-05-06T05:44:23.420Z,51.9
2019-05-06T05:46:23.237Z,52
2019-05-06T05:48:23.405Z,51.3
2019-05-06T05:50:23.454Z,51.3
2019-05-06T05:52:23.084Z,51.1
2019-05-06T05:54:23.907Z,51.1
2019-05-06T05:56:24.045Z,51.2
2019-05-06T05:58:24.801Z,51.7
2019-05-06T06:00:22.557Z,50.9
2019-05-06T06:02:22.556Z,50.7
2019-05-06T06:04:22.823Z,49.1
2019-05-06T06:06:22.356Z,49.2
2019-05-06T06:08:24.698Z,49.3
2019-05-06T06:10:22.617Z,49.4
2019-05-06T06:12:22.988Z,49.7
2019-05-06T06:14:22.076Z,49
2019-05-06T06:16:23.234Z,50.7
2019-05-06T06:18:22.789Z,51.4
2019-05-06T06:20:22.535Z,49.9
2019-05-06T06:22:22.823Z,50.4
2019-05-06T06:24:22.528Z,51
2019-05-06T06:26:22.642Z,51.4
2019-05-06T06:28:22.774Z,50
2019-05-06T06:30:22.154Z,50.8
2019-05-06T06:32:23.003Z,50.8
2019-05-06T06:34:22.314Z,51
2019-05-06T06:36:22.926Z,51.4
2019-05-06T06:38:21.288Z,48.9
2019-05-06T06:40:22.265Z,47.3
2019-05-06T06:42:22.195Z,47.9
2019-05-06T06:44:22.135Z,49.1
2019-05-06T06:46:22.381Z,48.2
2019-05-06T06:48:20.181Z,47.9
2019-05-06T06:50:22.106Z,47.4
2019-05-06T06:52:22.785Z,46.2
2019-05-06T06:54:20.007Z,46.7
2019-05-06T06:56:22.029Z,44.9
2019-05-06T06:58:22.593Z,44.3
2019-05-06T07:00:22.140Z,44.9
2019-05-06T07:02:22.961Z,44.6
2019-05-06T07:04:23.154Z,44.7
2019-05-06T07:06:19.547Z,44.8
2019-05-06T07:08:32.127Z,43.5
2019-05-06T07:10:19.269Z,42.2
2019-05-06T07:12:19.556Z,43.5
2019-05-06T07:14:22.585Z,43.1
2019-05-06T07:16:20.722Z,42.7
2019-05-06T07:18:19.214Z,43.7
2019-05-06T07:20:19.197Z,43
2019-05-06T07:22:19.142Z,43.3
2019-05-06T07:24:18.981Z,41.5
2019-05-06T07:26:19.034Z,41.1
2019-05-06T07:28:18.948Z,40.6
2019-05-06T07:30:18.970Z,41.4
2019-05-06T07:32:19.152Z,41.2
2019-05-06T07:34:18.805Z,40.8
2019-05-06T07:36:20.256Z,41.6
2019-05-06T07:38:18.876Z,41.5
2019-05-06T07:40:18.670Z,38.5
2019-05-06T07:42:18.728Z,39.1
2019-05-06T07:44:19.050Z,39.3
2019-05-06T07:46:18.551Z,38.7
2019-05-06T07:48:18.526Z,36.4
2019-05-06T07:50:18.473Z,35.9
2019-05-06T07:52:18.491Z,36.8
2019-05-06T07:54:18.366Z,36.5
2019-05-06T07:56:18.422Z,37.1
2019-05-06T07:58:18.459Z,37
2019-05-06T08:00:18.455Z,35.3
2019-05-06T08:02:18.401Z,34.5
2019-05-06T08:04:18.617Z,34.6
2019-05-06T08:06:18.265Z,33.5
2019-05-06T08:08:18.339Z,33.3
2019-05-06T08:10:18.411Z,33.5
2019-05-06T08:12:18.095Z,33.7
2019-05-06T08:14:18.606Z,32.1
2019-05-06T08:16:18.168Z,33.4
2019-05-06T08:18:18.080Z,34.1
2019-05-06T08:20:18.805Z,36
2019-05-06T08:22:18.154Z,36.8
2019-05-06T08:24:18.189Z,36.1
2019-05-06T08:26:18.291Z,37.2
2019-05-06T08:28:18.063Z,34.1
2019-05-06T08:30:18.668Z,34.4
2019-05-06T08:32:18.071Z,33.9
2019-05-06T08:34:17.940Z,33
2019-05-06T08:36:18.079Z,33.2
2019-05-06T08:38:18.038Z,32.1
2019-05-06T08:40:19.016Z,33.1
2019-05-06T08:42:17.922Z,33.5
2019-05-06T08:44:18.070Z,32.6
2019-05-06T08:46:18.372Z,32
2019-05-06T08:48:17.874Z,31.4
2019-05-06T08:50:18.058Z,29.6
2019-05-06T08:52:18.491Z,29.1
2019-05-06T08:54:17.892Z,30.6
2019-05-06T08:56:17.927Z,29.2
2019-05-06T08:58:18.120Z,28.3
2019-05-06T09:00:17.855Z,28.1
2019-05-06T09:02:18.170Z,28.9
2019-05-06T09:04:18.169Z,27.8
2019-05-06T09:06:29.253Z,27
2019-05-06T09:08:18.612Z,27
2019-05-06T09:10:19.481Z,28.1
2019-05-06T09:12:19.025Z,30
2019-05-06T09:14:19.011Z,28.4
2019-05-06T09:16:18.051Z,28.2
2019-05-06T09:18:18.616Z,28.5
2019-05-06T09:20:19.028Z,29.3
2019-05-06T09:22:18.004Z,28.6
2019-05-06T09:24:17.948Z,28.5
2019-05-06T09:26:18.228Z,28.6
2019-05-06T09:28:18.423Z,29.3
2019-05-06T09:30:29.547Z,29.1
2019-05-06T09:32:19.232Z,27.4
2019-05-06T09:34:19.552Z,28.1
2019-05-06T09:36:18.185Z,28.7
2019-05-06T09:38:18.119Z,29
2019-05-06T09:40:19.842Z,28.3
2019-05-06T09:42:18.464Z,27.5
2019-05-06T09:44:19.106Z,27.8
2019-05-06T09:46:18.184Z,27.4
2019-05-06T09:48:18.310Z,27.3
2019-05-06T09:50:35.594Z,27.9
2019-05-06T09:52:23.209Z,28
2019-05-06T09:54:18.395Z,26.4
2019-05-06T09:56:19.410Z,26.5
2019-05-06T09:58:18.722Z,27.5
2019-05-06T10:00:19.514Z,26.3
2019-05-06T10:02:19.969Z,25.9
2019-05-06T10:04:18.736Z,26.9
2019-05-06T10:06:18.733Z,24.8
2019-05-06T10:08:19.148Z,24.8
2019-05-06T10:10:19.339Z,24.9
2019-05-06T10:12:18.707Z,24.9
2019-05-06T10:14:19.854Z,26
2019-05-06T10:16:21.751Z,25.9
2019-05-06T10:18:18.924Z,25.1
2019-05-06T10:20:22.332Z,25.9
2019-05-06T10:22:19.581Z,25.9
2019-05-06T10:24:20.226Z,25.9
2019-05-06T10:26:20.019Z,26.3
2019-05-06T10:28:23.115Z,26.1
2019-05-06T10:30:22.520Z,25.2
2019-05-06T10:32:25.353Z,25.3
2019-05-06T10:34:19.438Z,25.2
2019-05-06T10:36:19.746Z,26.5
2019-05-06T10:38:33.815Z,26.2
2019-05-06T10:40:32.774Z,25.8
2019-05-06T10:42:37.595Z,25.8
2019-05-06T10:44:38.409Z,24.5
2019-05-06T10:46:22.415Z,25.8
2019-05-06T10:48:22.340Z,26.5
2019-05-06T10:50:23.013Z,25.2
2019-05-06T10:52:21.914Z,24.9
2019-05-06T10:54:22.755Z,24.7
2019-05-06T10:56:20.360Z,26.5
2019-05-06T10:58:22.518Z,24.2
2019-05-06T11:00:23.041Z,24
2019-05-06T11:02:20.528Z,25.1
2019-05-06T11:04:24.973Z,25
2019-05-06T11:06:22.101Z,24.7
2019-05-06T11:08:22.900Z,24.6
2019-05-06T11:10:27.701Z,23.3
2019-05-06T11:12:21.894Z,23.6
2019-05-06T11:14:22.921Z,24.4
2019-05-06T11:16:23.658Z,23.1
2019-05-06T11:18:23.405Z,24.4
2019-05-06T11:20:24.170Z,23.7
2019-05-06T11:22:24.483Z,24
2019-05-06T11:24:23.114Z,23.6
2019-05-06T11:26:23.725Z,23.7
2019-05-06T11:28:22.578Z,23.8
2019-05-06T11:30:24.684Z,23.7
2019-05-06T11:32:23.754Z,23.6
2019-05-06T11:34:23.767Z,24.1
2019-05-06T11:36:22.985Z,23.2
2019-05-06T11:38:23.903Z,23.7
2019-05-06T11:40:23.531Z,23.3
2019-05-06T11:42:28.951Z,23.8
2019-05-06T11:44:23.847Z,23.4
2019-05-06T11:46:22.949Z,23.7
2019-05-06T11:48:24.667Z,23.5
2019-05-06T11:50:23.933Z,23.1
2019-05-06T11:52:22.812Z,23.6
2019-05-06T11:54:24.534Z,23.6
2019-05-06T11:56:24.372Z,23.3
2019-05-06T11:58:22.733Z,23.4
2019-05-06T12:00:24.407Z,23.6
2019-05-06T12:02:24.238Z,23
2019-05-06T12:04:25.928Z,24
2019-05-06T12:06:23.364Z,23.8
2019-05-06T12:08:24.067Z,23.6
2019-05-06T12:10:23.763Z,22.1
2019-05-06T12:12:23.819Z,22.7
2019-05-06T12:14:23.956Z,22.8
2019-05-06T12:16:25.979Z,21.9
2019-05-06T12:18:23.661Z,22.5
2019-05-06T12:20:26.875Z,21.8
2019-05-06T12:22:24.896Z,21.4
2019-05-06T12:24:24.723Z,20.9
2019-05-06T12:26:24.222Z,20.5
2019-05-06T12:28:25.416Z,19.9
2019-05-06T12:30:25.729Z,20
2019-05-06T12:32:38.674Z,20
2019-05-06T12:34:25.375Z,20.8
2019-05-06T12:36:32.288Z,20.9
2019-05-06T12:38:30.376Z,20.9
2019-05-06T12:40:26.447Z,20.3
2019-05-06T12:42:26.088Z,21.1
2019-05-06T12:44:27.363Z,21.2
2019-05-06T12:46:26.287Z,21.3
2019-05-06T12:48:26.773Z,21.7
2019-05-06T12:50:27.556Z,21.8
2019-05-06T12:52:27.143Z,21.5
2019-05-06T12:54:27.835Z,21.4
2019-05-06T12:56:28.100Z,22.6
2019-05-06T12:58:27.917Z,22.4
2019-05-06T13:00:27.256Z,22.8
2019-05-06T13:02:26.802Z,23.3
2019-05-06T13:04:45.982Z,22.2
2019-05-06T13:06:28.058Z,22.3
2019-05-06T13:08:47.988Z,21.9
2019-05-06T13:10:28.229Z,20.6
2019-05-06T13:12:28.363Z,21.2
2019-05-06T13:14:27.896Z,22.4
2019-05-06T13:16:30.140Z,21.4
2019-05-06T13:18:33.986Z,21.4
2019-05-06T13:20:34.031Z,20.6
2019-05-06T13:24:28.685Z,20.9
2019-05-06T13:26:29.753Z,21.8
2019-05-06T13:28:30.420Z,21.7
2019-05-06T13:30:32.497Z,21.9
2019-05-06T13:32:31.851Z,21.5
2019-05-06T13:34:29.207Z,22
2019-05-06T13:36:29.490Z,21.5
2019-05-06T13:38:32.098Z,21.5
2019-05-06T13:40:32.198Z,22.2
2019-05-06T13:42:29.415Z,21.2
2019-05-06T13:44:32.098Z,21.9
2019-05-06T13:46:33.263Z,22.2
2019-05-06T13:48:29.400Z,22.2
2019-05-06T13:50:29.998Z,22.3
2019-05-06T13:52:31.178Z,22
2019-05-06T13:54:29.755Z,22.3
2019-05-06T13:56:33.493Z,21.4
2019-05-06T13:58:32.319Z,22
2019-05-06T14:00:32.955Z,22
2019-05-06T14:02:34.021Z,21.8
2019-05-06T14:04:32.559Z,21.7
2019-05-06T14:06:32.326Z,21.9
2019-05-06T14:08:33.029Z,21.3
2019-05-06T14:10:32.827Z,20.9
2019-05-06T14:12:33.134Z,20.8
2019-05-06T14:14:32.910Z,21
2019-05-06T14:16:35.429Z,21.1
2019-05-06T14:18:33.215Z,21.5
2019-05-06T14:20:30.976Z,20.8
2019-05-06T14:22:32.741Z,21.4
2019-05-06T14:24:33.883Z,20.2
2019-05-06T14:26:37.156Z,20.9
2019-05-06T14:28:33.873Z,20.2
2019-05-06T14:30:33.137Z,20.6
2019-05-06T14:32:34.562Z,21.4
2019-05-06T14:34:34.407Z,21.5
2019-05-06T14:36:33.384Z,21.3
2019-05-06T14:38:37.056Z,21.5
2019-05-06T14:40:38.230Z,21.3
2019-05-06T14:42:35.694Z,21.6
2019-05-06T14:44:35.163Z,21.5
2019-05-06T14:46:36.706Z,22.1
2019-05-06T14:48:33.093Z,22.3
2019-05-06T14:50:45.161Z,21
2019-05-06T14:52:34.472Z,21
2019-05-06T14:54:33.718Z,20.6
2019-05-06T14:56:33.846Z,20.7
2019-05-06T14:58:36.989Z,20.2
2019-05-06T15:00:37.133Z,18.5
2019-05-06T15:02:38.206Z,18.5
2019-05-06T15:04:37.961Z,18.7
2019-05-06T15:06:34.356Z,19.3
2019-05-06T15:08:37.595Z,19.5
2019-05-06T15:10:33.812Z,20.4
2019-05-06T15:12:35.016Z,21
2019-05-06T15:16:34.664Z,20.2
2019-05-06T15:18:42.451Z,20.8
2019-05-06T15:20:35.906Z,20.6
2019-05-06T15:22:35.079Z,21.1
2019-05-06T15:24:49.361Z,20.9
2019-05-06T15:26:42.652Z,21.8
2019-05-06T15:28:37.278Z,22.4
2019-05-06T15:30:37.252Z,22.4
2019-05-06T15:32:36.165Z,23.9
2019-05-06T15:34:37.474Z,24.2
2019-05-06T15:36:37.921Z,23.4
2019-05-06T15:38:48.065Z,23.4
2019-05-06T15:40:36.819Z,24.5
2019-05-06T15:42:42.337Z,23.3
2019-05-06T15:44:36.929Z,23.9
2019-05-06T15:46:38.626Z,25
2019-05-06T15:48:39.122Z,24.3
2019-05-06T15:50:36.414Z,24.1
2019-05-06T15:52:36.888Z,25.6
2019-05-06T15:54:39.698Z,25.4
2019-05-06T15:56:36.839Z,26
2019-05-06T15:58:38.888Z,26.1
2019-05-06T16:00:36.599Z,26.2
2019-05-06T16:02:38.782Z,26.6
2019-05-06T16:04:37.266Z,26.5
2019-05-06T16:06:38.446Z,26.6
2019-05-06T16:08:38.884Z,26.4
2019-05-06T16:10:51.917Z,26.7
2019-05-06T16:12:37.747Z,25.9
2019-05-06T16:16:37.035Z,26.9
2019-05-06T16:18:53.682Z,26.3
2019-05-06T16:20:38.349Z,25.4
2019-05-06T16:22:45.620Z,26.6
2019-05-06T16:24:43.034Z,26.4
2019-05-06T16:26:48.394Z,26.7
2019-05-06T16:28:45.186Z,26.5
2019-05-06T16:34:53.006Z,27.5
2019-05-06T16:38:54.870Z,29.1
2019-05-06T16:40:38.362Z,29.4
2019-05-06T16:46:42.505Z,31.2
2019-05-06T16:48:53.246Z,30.3
2019-05-06T16:52:44.886Z,31
2019-05-06T16:54:39.478Z,31.1
2019-05-06T16:56:46.744Z,32.1
2019-05-06T16:58:45.066Z,32.1
2019-05-06T17:00:39.866Z,32.2
2019-05-06T17:10:54.270Z,35.6
2019-05-06T17:14:49.689Z,35.6
2019-05-06T17:16:52.556Z,36.1
2019-05-06T17:18:41.954Z,36.5
2019-05-06T17:20:49.010Z,36.8
2019-05-06T17:28:38.110Z,37.6
2019-05-06T17:30:37.105Z,38.1
2019-05-06T17:32:37.365Z,38.1
2019-05-06T17:36:48.372Z,38.6
2019-05-06T17:50:42.098Z,40.2
2019-05-06T17:56:42.804Z,41.1
2019-05-06T18:00:35.875Z,41.8
2019-05-06T18:10:48.279Z,44.5
2019-05-06T18:18:40.562Z,45.2
2019-05-06T18:30:36.986Z,46.8
2019-05-06T18:32:34.904Z,46.8
2019-05-06T18:34:37.808Z,46.6
2019-05-06T18:36:34.777Z,45.5
2019-05-06T18:38:33.940Z,46.1
2019-05-06T18:40:33.222Z,45.8
2019-05-06T18:42:33.499Z,45.3
2019-05-06T18:44:34.046Z,44.6
2019-05-06T18:46:33.653Z,46.2
2019-05-06T18:48:35.049Z,46.2
2019-05-06T18:50:32.170Z,46.5
2019-05-06T18:52:32.681Z,47.1
2019-05-06T18:54:33.824Z,47.8
2019-05-06T18:56:32.432Z,47.4
2019-05-06T18:58:32.115Z,48.1
2019-05-06T19:00:32.085Z,47.1
2019-05-06T19:02:32.640Z,48
2019-05-06T19:04:33.407Z,48.5
2019-05-06T19:06:32.695Z,48.6
2019-05-06T19:08:32.822Z,48.3
2019-05-06T19:10:33.254Z,48.8
2019-05-06T19:12:39.836Z,49.1
2019-05-06T19:14:32.604Z,49.4
2019-05-06T19:16:48.309Z,50
2019-05-06T19:18:30.318Z,49.7
2019-05-06T19:20:30.339Z,49.7
2019-05-06T19:22:32.313Z,50.9
2019-05-06T19:24:30.147Z,50.9
2019-05-06T19:26:32.153Z,51.1
2019-05-06T19:28:32.881Z,51.5
2019-05-06T19:30:31.875Z,51.3
2019-05-06T19:32:30.336Z,51.4
2019-05-06T19:34:29.809Z,52.2
2019-05-06T19:36:29.344Z,52
2019-05-06T19:38:32.390Z,52.1
2019-05-06T19:40:28.969Z,51.7
2019-05-06T19:42:42.207Z,51.1
2019-05-06T19:44:29.540Z,51.9
2019-05-06T19:46:29.646Z,51.6
2019-05-06T19:48:28.371Z,51.8
2019-05-06T19:50:30.089Z,52.1
2019-05-06T19:52:28.299Z,51.2
2019-05-06T19:54:28.117Z,51.4
2019-05-06T19:56:28.638Z,51.3
2019-05-06T19:58:27.867Z,51.9
2019-05-06T20:00:27.706Z,51.2
2019-05-06T20:02:27.713Z,50.7
2019-05-06T20:04:27.403Z,50.7
2019-05-06T20:06:27.433Z,51.6
2019-05-06T20:08:27.370Z,51.2
2019-05-06T20:10:27.196Z,51.4
2019-05-06T20:12:27.217Z,51.1
2019-05-06T20:14:27.549Z,51.2
2019-05-06T20:16:26.966Z,52.1
2019-05-06T20:18:26.640Z,51.6
2019-05-06T20:20:26.990Z,53.9
2019-05-06T20:22:26.333Z,54
2019-05-06T20:24:26.388Z,53.8
2019-05-06T20:26:27.065Z,53.9
2019-05-06T20:28:26.080Z,52.5
2019-05-06T20:30:25.758Z,53.3
2019-05-06T20:32:25.915Z,53.7
2019-05-06T20:34:25.518Z,53.3
2019-05-06T20:36:25.320Z,53.7
2019-05-06T20:38:25.292Z,54
2019-05-06T20:40:25.155Z,53.6
2019-05-06T20:42:25.052Z,53.6
2019-05-06T20:44:25.637Z,53.6
2019-05-06T20:46:24.703Z,53.6
2019-05-06T20:48:24.802Z,53.8
2019-05-06T20:50:24.725Z,54.4
2019-05-06T20:52:24.598Z,53.5
2019-05-06T20:54:24.180Z,54.1
2019-05-06T20:56:24.371Z,54.4
2019-05-06T20:58:24.241Z,55.1
2019-05-06T21:00:24.221Z,54.8
2019-05-06T21:02:25.878Z,54.4
2019-05-06T21:04:24.799Z,54.6
2019-05-06T21:06:23.474Z,54.6
2019-05-06T21:08:23.503Z,55.5
2019-05-06T21:10:24.835Z,56.2
2019-05-06T21:12:23.196Z,55.7
2019-05-06T21:14:23.221Z,56.2
2019-05-06T21:16:22.881Z,55.3
2019-05-06T21:18:23.074Z,55.5
2019-05-06T21:20:23.109Z,56.6
2019-05-06T21:22:22.559Z,57.1
2019-05-06T21:24:22.637Z,56.8
2019-05-06T21:26:22.337Z,56.5
2019-05-06T21:28:23.815Z,56.9
2019-05-06T21:30:22.142Z,56.2
2019-05-06T21:32:22.309Z,56.6
2019-05-06T21:34:22.340Z,56
2019-05-06T21:36:23.038Z,56.6
2019-05-06T21:38:22.714Z,57
2019-05-06T21:40:21.356Z,57.6
2019-05-06T21:42:21.040Z,57
2019-05-06T21:44:22.828Z,57
2019-05-06T21:46:20.774Z,56.5
2019-05-06T21:48:22.223Z,56
2019-05-06T21:50:22.658Z,55.8
2019-05-06T21:52:33.627Z,55.8
2019-05-06T21:54:20.260Z,56.3
2019-05-06T21:56:22.590Z,56.8
2019-05-06T21:58:19.809Z,56.8
2019-05-06T22:00:26.431Z,56.7
2019-05-06T22:02:20.228Z,56.9
2019-05-06T22:04:19.499Z,57.3
2019-05-06T22:06:19.243Z,57.5
2019-05-06T22:08:19.327Z,57.6
2019-05-06T22:10:19.067Z,57.5
2019-05-06T22:12:18.994Z,58.1
2019-05-06T22:14:19.056Z,58
2019-05-06T22:16:18.807Z,58.3
2019-05-06T22:18:18.463Z,58.6
2019-05-06T22:20:23.568Z,58.4
2019-05-06T22:22:20.505Z,58.5
2019-05-06T22:24:17.933Z,58.5
2019-05-06T22:26:18.438Z,59.1
2019-05-06T22:28:17.656Z,59.1
2019-05-06T22:30:17.802Z,59.2
2019-05-06T22:32:17.514Z,58.7
2019-05-06T22:34:17.213Z,58.7
2019-05-06T22:36:18.168Z,58.9
2019-05-06T22:38:17.495Z,59.2
2019-05-06T22:40:23.502Z,58.8
2019-05-06T22:42:17.711Z,59
2019-05-06T22:44:17.207Z,59.4
2019-05-06T22:46:18.205Z,59.4
2019-05-06T22:48:17.168Z,59.5
2019-05-06T22:50:16.327Z,59.5
2019-05-06T22:52:15.808Z,58.8
2019-05-06T22:54:15.578Z,58.9
2019-05-06T22:56:15.492Z,58.7
2019-05-06T22:58:15.383Z,58.4
2019-05-06T23:00:22.386Z,59.2
2019-05-06T23:02:15.550Z,58.8
2019-05-06T23:04:14.927Z,59.4
2019-05-06T23:06:15.120Z,59.5
2019-05-06T23:08:15.992Z,59.8
2019-05-06T23:10:14.677Z,60.1
2019-05-06T23:12:14.151Z,60
2019-05-06T23:14:28.062Z,60.4
2019-05-06T23:16:14.055Z,60.1
2019-05-06T23:18:13.717Z,60.2
2019-05-06T23:20:14.064Z,59.6
2019-05-06T23:22:13.421Z,59.5
2019-05-06T23:24:13.364Z,59.5
2019-05-06T23:26:13.114Z,59.3
2019-05-06T23:26:45.022Z,59.3
2019-05-06T23:26:45.102Z,59.3
2019-05-06T23:28:12.904Z,59.5
2019-05-06T23:30:13.218Z,59.7
2019-05-06T23:32:14.051Z,59.9
2019-05-06T23:34:12.643Z,60
2019-05-06T23:36:12.499Z,60.3
